Time;durP1;ratioP1;P1;durP2;ratioP2;P2;SDS_P1;SDS_P2;PMS_P1;PMS_P2;Temp;Humidity;BMP_temperature;BMP_pressure;BME280_temperature;BME280_humidity;BME280_pressure;Samples;Min_cycle;Max_cycle;Signal;HPM_P1;HPM_P2
2021/11/25 00:01:44;;;;;;;25.00;17.30;;;;;;;-4.91;82.37;98016.14;108035;1272;68994;-68
2021/11/25 00:04:13;;;;;;;23.90;16.90;;;;;;;-4.95;82.54;98014.29;108042;1272;69441;-68
2021/11/25 00:06:43;;;;;;;34.00;21.20;;;;;;;-4.98;82.79;98010.39;108045;1275;59704;-68
2021/11/25 00:09:12;;;;;;;21.80;15.30;;;;;;;-5.00;82.80;98015.48;108111;1272;59706;-69
2021/11/25 00:11:42;;;;;;;43.70;23.40;;;;;;;-5.01;82.75;98011.06;108030;1274;71627;-68
2021/11/25 00:14:11;;;;;;;39.80;24.20;;;;;;;-5.02;82.48;98011.41;108069;1272;66977;-68
2021/11/25 00:16:42;;;;;;;49.40;26.80;;;;;;;-5.04;82.78;98010.39;108044;1273;68494;-69
2021/11/25 00:19:11;;;;;;;37.00;21.70;;;;;;;-5.05;82.74;98013.10;107934;1277;59742;-68
2021/11/25 00:21:42;;;;;;;21.00;13.10;;;;;;;-5.05;82.95;98011.41;107975;1272;60130;-69
2021/11/25 00:24:12;;;;;;;34.60;21.50;;;;;;;-5.04;82.95;98010.90;108105;1272;71610;-69
2021/11/25 00:26:42;;;;;;;43.40;24.80;;;;;;;-5.05;82.97;98015.31;108054;1272;68444;-69
2021/11/25 00:29:13;;;;;;;25.40;16.20;;;;;;;-5.08;82.47;98014.82;108055;1273;69697;-68
2021/11/25 00:31:42;;;;;;;;;;;;;;;-5.13;82.53;98012.45;107997;1273;59733;-68
2021/11/25 00:34:12;;;;;;;;;;;;;;;-5.17;82.68;98010.41;108053;1272;59745;-69
2021/11/25 00:36:43;;;;;;;15.20;9.60;;;;;;;-5.20;82.74;98011.77;107981;1276;71444;-68
2021/11/25 00:39:13;;;;;;;25.40;15.60;;;;;;;-5.24;82.62;98014.15;108036;1276;67875;-68
2021/11/25 00:41:43;;;;;;;23.90;14.20;;;;;;;-5.27;82.15;98011.09;108034;1276;68634;-68
2021/11/25 00:44:13;;;;;;;20.80;11.70;;;;;;;-5.30;81.90;98009.73;107977;1275;59785;-68
2021/11/25 00:46:43;;;;;;;27.30;17.20;;;;;;;-5.34;82.29;98000.56;108068;1272;59725;-68
2021/11/25 00:49:13;;;;;;;44.60;26.70;;;;;;;-5.37;82.25;98001.58;107953;1274;71547;-68
2021/11/25 00:51:43;;;;;;;39.00;23.30;;;;;;;-5.40;82.24;97994.62;108052;1275;67830;-68
2021/11/25 00:54:13;;;;;;;;;;;;;;;-5.41;82.24;97993.60;108048;1274;68550;-68
2021/11/25 00:56:43;;;;;;;27.10;17.40;;;;;;;-5.44;82.51;97995.65;108023;1275;59671;-68
2021/11/25 00:59:14;;;;;;;30.70;20.00;;;;;;;-5.47;82.51;97994.11;108069;1272;59665;-68
2021/11/25 01:01:44;;;;;;;23.10;16.50;;;;;;;-5.48;82.70;97992.41;107891;1275;71471;-69
2021/11/25 01:04:15;;;;;;;20.40;13.80;;;;;;;-5.49;82.62;97989.53;108046;1272;67781;-68
2021/11/25 01:06:44;;;;;;;15.20;11.70;;;;;;;-5.51;82.36;97987.83;108035;1271;68551;-68
2021/11/25 01:09:14;;;;;;;36.60;21.60;;;;;;;-5.52;82.35;97984.77;108005;1272;59780;-68
2021/11/25 01:11:45;;;;;;;19.20;12.80;;;;;;;-5.53;82.61;97983.06;108108;1272;59700;-69
2021/11/25 01:14:16;;;;;;;29.10;17.60;;;;;;;-5.49;82.31;97980.85;108080;1274;71462;-68
2021/11/25 01:16:46;;;;;;;33.30;18.80;;;;;;;-5.44;82.46;97978.83;108102;1272;67628;-69
2021/11/25 01:19:16;;;;;;;28.10;18.40;;;;;;;-5.41;82.51;97974.56;108123;1271;68870;-68
2021/11/25 01:21:49;;;;;;;30.20;18.20;;;;;;;-5.42;82.62;97973.02;107992;1272;59784;-68
2021/11/25 01:24:18;;;;;;;24.10;15.50;;;;;;;-5.43;83.04;97968.29;108070;1276;59720;-69
2021/11/25 01:26:51;;;;;;;22.70;16.80;;;;;;;-5.45;83.27;97966.25;108065;1276;70770;-69
2021/11/25 01:29:23;;;;;;;31.30;20.20;;;;;;;-5.47;83.06;97962.17;108031;1276;67826;-68
2021/11/25 01:31:52;;;;;;;30.90;17.50;;;;;;;-5.52;82.70;97960.48;107961;1276;69410;-68
2021/11/25 01:34:22;;;;;;;46.40;25.70;;;;;;;-5.55;82.54;97959.63;107954;1276;59759;-68
2021/11/25 01:36:55;;;;;;;38.10;23.60;;;;;;;-5.58;82.75;97958.27;108091;1274;59786;-68
2021/11/25 01:39:26;;;;;;;35.60;22.30;;;;;;;-5.60;82.86;97953.85;108015;1276;71595;-68
2021/11/25 01:41:56;;;;;;;45.40;24.30;;;;;;;-5.63;83.07;97949.78;108057;1276;67824;-68
2021/11/25 01:44:26;;;;;;;44.90;24.20;;;;;;;-5.64;83.20;97950.63;107979;1276;68645;-68
2021/11/25 01:46:55;;;;;;;50.80;27.30;;;;;;;-5.66;82.94;97947.41;108021;1276;59767;-69
2021/11/25 01:49:25;;;;;;;33.00;21.70;;;;;;;-5.70;82.62;97948.25;108059;1272;59697;-69
2021/11/25 01:51:57;;;;;;;25.20;12.50;;;;;;;-5.74;82.65;97944.67;107989;1276;71550;-68
2021/11/25 01:54:28;;;;;;;20.90;14.80;;;;;;;-5.77;82.74;97945.88;108004;1276;67105;-68
2021/11/25 01:56:58;;;;;;;;;;;;;;;-5.79;82.78;97945.35;108070;1272;69422;-68
2021/11/25 01:59:29;;;;;;;38.80;21.00;;;;;;;-5.81;82.81;97941.96;108014;1276;59777;-68
2021/11/25 02:01:59;;;;;;;24.40;16.40;;;;;;;-5.83;82.87;97941.27;107777;1277;59798;-69
2021/11/25 02:04:29;;;;;;;;;;;;;;;-5.85;82.77;97940.10;108034;1272;70987;-68
2021/11/25 02:06:59;;;;;;;25.00;16.50;;;;;;;-5.87;82.95;97938.73;107985;1276;68586;-69
2021/11/25 02:09:29;;;;;;;40.20;23.00;;;;;;;-5.90;82.92;97936.36;108042;1272;69816;-68
2021/11/25 02:11:59;;;;;;;29.50;18.20;;;;;;;-5.90;82.98;97938.23;108103;1275;59713;-68
2021/11/25 02:14:29;;;;;;;29.30;19.10;;;;;;;-5.91;83.22;97934.16;107931;1274;59627;-69
2021/11/25 02:16:59;;;;;;;50.60;26.80;;;;;;;-5.91;83.33;97934.33;108022;1272;70604;-68
2021/11/25 02:19:29;;;;;;;33.70;21.80;;;;;;;-5.91;83.25;97932.30;107989;1275;68591;-68
2021/11/25 02:21:59;;;;;;;27.20;19.50;;;;;;;-5.92;83.41;97929.24;107938;1276;68984;-68
2021/11/25 02:24:31;;;;;;;39.20;22.70;;;;;;;-5.93;83.33;97927.73;108021;1273;59739;-68
2021/11/25 02:27:02;;;;;;;13.40;8.20;;;;;;;-5.94;83.33;97928.92;107998;1276;59734;-68
2021/11/25 02:29:32;;;;;;;23.60;16.20;;;;;;;-5.94;82.64;97923.31;108028;1272;70788;-68
2021/11/25 02:32:02;;;;;;;30.00;17.90;;;;;;;-5.91;82.53;97923.98;107900;1277;68471;-68
2021/11/25 02:34:33;;;;;;;29.10;17.00;;;;;;;-5.86;82.64;97925.32;107937;1278;68660;-68
2021/11/25 02:37:04;;;;;;;31.50;17.30;;;;;;;-5.83;82.87;97925.99;108040;1271;59723;-69
2021/11/25 02:39:35;;;;;;;30.40;19.70;;;;;;;-5.84;83.16;97924.48;108057;1275;59710;-68
2021/11/25 02:42:05;;;;;;;18.90;12.00;;;;;;;-5.87;83.37;97925.15;108032;1276;71533;-69
2021/11/25 02:44:35;;;;;;;23.80;16.30;;;;;;;-5.90;83.54;97928.39;108013;1275;68617;-68
2021/11/25 02:47:05;;;;;;;;;;;;;;;-5.93;83.35;97921.78;108043;1272;69507;-69
2021/11/25 02:49:41;;;;;;;23.80;14.80;;;;;;;-5.97;83.39;97924.84;108048;1272;59663;-68
2021/11/25 02:52:11;;;;;;;30.80;17.80;;;;;;;-6.01;83.37;97923.15;108069;1276;59728;-68
2021/11/25 02:54:43;;;;;;;35.20;22.10;;;;;;;-6.04;83.33;97918.56;108057;1275;71348;-69
2021/11/25 02:57:16;;;;;;;39.40;22.20;;;;;;;-6.06;83.19;97913.13;108052;1276;68183;-68
2021/11/25 02:59:45;;;;;;;29.80;20.20;;;;;;;-6.07;83.40;97913.98;108065;1276;69425;-68
2021/11/25 03:02:15;;;;;;;47.40;24.90;;;;;;;-6.09;83.35;97911.42;108005;1277;59765;-68
2021/11/25 03:04:46;;;;;;;33.00;18.70;;;;;;;-6.10;83.56;97908.52;108065;1276;59683;-68
2021/11/25 03:07:15;;;;;;;21.10;13.20;;;;;;;-6.11;83.57;97907.85;108010;1275;71552;-68
2021/11/25 03:09:46;;;;;;;22.80;16.10;;;;;;;-6.12;83.35;97907.00;108048;1275;68523;-68
2021/11/25 03:12:15;;;;;;;28.40;18.80;;;;;;;-6.11;83.28;97904.29;108021;1276;69425;-68
2021/11/25 03:14:46;;;;;;;32.10;19.60;;;;;;;-6.11;83.36;97904.29;108031;1272;59747;-68
2021/11/25 03:17:16;;;;;;;46.70;25.30;;;;;;;-6.11;83.53;97902.59;108077;1274;59643;-70
2021/11/25 03:19:46;;;;;;;45.00;24.90;;;;;;;-6.10;83.10;97900.89;107990;1273;70595;-67
2021/11/25 03:22:17;;;;;;;26.00;16.80;;;;;;;-6.12;83.07;97895.30;108082;1272;68617;-70
2021/11/25 03:24:47;;;;;;;25.80;15.20;;;;;;;-6.13;83.10;97891.58;108041;1273;68747;-68
2021/11/25 03:27:17;;;;;;;24.60;14.80;;;;;;;-6.15;83.24;97887.15;108057;1275;59761;-68
2021/11/25 03:29:47;;;;;;;45.70;26.60;;;;;;;-6.18;83.10;97885.63;108013;1272;59730;-70
2021/11/25 03:32:16;;;;;;;44.60;24.90;;;;;;;-6.22;83.06;97884.44;107991;1275;71002;-68
2021/11/25 03:34:47;;;;;;;44.20;25.50;;;;;;;-6.24;82.83;97880.02;108013;1276;68908;-68
2021/11/25 03:37:17;;;;;;;42.50;22.90;;;;;;;-6.26;82.42;97875.09;107950;1276;68730;-68
2021/11/25 03:39:46;;;;;;;28.80;17.70;;;;;;;-6.28;82.82;97875.09;108042;1276;60287;-68
2021/11/25 03:42:16;;;;;;;23.40;13.90;;;;;;;-6.30;83.08;97875.77;107904;1277;59747;-68
2021/11/25 03:44:47;;;;;;;;;;;;;;;-6.33;83.20;97871.53;108108;1276;71644;-68
2021/11/25 03:47:18;;;;;;;26.70;13.00;;;;;;;-6.36;83.52;97872.04;107950;1276;66900;-68
2021/11/25 03:49:49;;;;;;;29.30;17.90;;;;;;;-6.39;83.65;97871.51;108020;1276;68435;-70
2021/11/25 03:52:18;;;;;;;30.30;18.80;;;;;;;-6.41;83.64;97871.35;108098;1275;59696;-67
2021/11/25 03:54:48;;;;;;;27.30;16.70;;;;;;;-6.43;83.58;97871.33;108076;1274;60135;-68
2021/11/25 03:57:17;;;;;;;29.20;17.50;;;;;;;-6.43;83.59;97872.02;107987;1275;71425;-68
2021/11/25 03:59:47;;;;;;;29.20;16.80;;;;;;;-6.44;83.58;97869.13;107981;1275;68619;-70
2021/11/25 04:02:16;;;;;;;30.40;17.40;;;;;;;-6.47;83.55;97865.39;107935;1276;68923;-68
2021/11/25 04:04:47;;;;;;;25.80;16.20;;;;;;;-6.48;83.67;97867.25;107959;1272;59796;-70
2021/11/25 04:07:16;;;;;;;29.10;17.00;;;;;;;-6.49;83.55;97864.88;108031;1276;59683;-68
2021/11/25 04:09:47;;;;;;;25.30;16.20;;;;;;;-6.51;83.40;97873.20;107918;1277;71536;-68
2021/11/25 04:12:16;;;;;;;20.10;13.20;;;;;;;-6.53;83.42;97870.80;107852;1278;69378;-68
2021/11/25 04:14:46;;;;;;;16.30;11.70;;;;;;;-6.55;83.29;97867.41;108060;1275;69291;-68
2021/11/25 04:17:21;;;;;;;39.40;20.80;;;;;;;-6.58;83.10;97864.69;107961;1277;59779;-68
2021/11/25 04:19:51;;;;;;;34.00;19.70;;;;;;;-6.60;82.64;97865.02;108014;1275;59744;-71
2021/11/25 04:22:22;;;;;;;15.10;8.70;;;;;;;-6.62;83.21;97864.85;108148;1274;71388;-68
2021/11/25 04:24:53;;;;;;;28.80;18.30;;;;;;;-6.64;83.25;97864.00;108102;1273;67740;-68
2021/11/25 04:27:24;;;;;;;30.60;16.20;;;;;;;-6.66;83.38;97865.52;107943;1275;69496;-68
2021/11/25 04:35:31;;;;;;;19.50;11.90;;;;;;;-6.67;82.90;97870.09;108033;1272;70942;-68
2021/11/25 04:38:10;;;;;;;14.90;8.10;;;;;;;-6.69;83.05;97867.05;108043;1275;68629;-68
2021/11/25 04:40:46;;;;;;;12.60;7.80;;;;;;;-6.71;83.09;97870.26;108134;1272;68879;-68
2021/11/25 04:43:18;;;;;;;12.70;8.10;;;;;;;-6.73;83.23;97872.46;108075;1273;59776;-68
2021/11/25 04:45:50;;;;;;;31.90;16.90;;;;;;;-6.75;83.14;97870.59;108119;1272;59659;-69
2021/11/25 04:48:23;;;;;;;34.50;20.00;;;;;;;-6.77;82.58;97865.33;108128;1274;71030;-68
2021/11/25 04:50:54;;;;;;;29.80;17.90;;;;;;;-6.78;83.01;97869.23;108090;1269;68075;-69
2021/11/25 04:53:25;;;;;;;16.40;8.80;;;;;;;-6.78;83.19;97869.74;108030;1272;69555;-68
2021/11/25 04:55:55;;;;;;;22.30;13.70;;;;;;;-6.79;82.74;97869.40;107915;1276;59711;-68
2021/11/25 04:58:24;;;;;;;21.90;12.10;;;;;;;-6.78;83.26;97866.34;107966;1275;60127;-68
2021/11/25 05:00:53;;;;;;;22.30;14.20;;;;;;;-6.74;83.25;97864.66;108007;1275;71544;-68
2021/11/25 05:03:23;;;;;;;14.30;9.60;;;;;;;-6.72;83.27;97862.45;108117;1272;68639;-68
2021/11/25 05:05:54;;;;;;;11.70;8.30;;;;;;;-6.72;83.26;97862.80;107993;1276;69304;-68
2021/11/25 05:08:23;;;;;;;28.30;15.00;;;;;;;-6.73;83.41;97859.75;107999;1275;59706;-68
2021/11/25 05:10:52;;;;;;;28.10;17.30;;;;;;;-6.75;83.41;97858.21;107909;1272;59668;-68
2021/11/25 05:13:21;;;;;;;13.00;8.30;;;;;;;-6.78;83.38;97858.05;108054;1272;71630;-68
2021/11/25 05:15:50;;;;;;;39.00;21.80;;;;;;;-6.79;83.14;97856.84;108038;1275;68642;-68
2021/11/25 05:18:20;;;;;;;17.20;9.50;;;;;;;-6.82;83.20;97853.96;108061;1273;69329;-68
2021/11/25 05:20:49;;;;;;;26.60;16.50;;;;;;;-6.83;82.86;97856.85;107985;1276;59796;-68
2021/11/25 05:23:18;;;;;;;22.80;13.90;;;;;;;-6.82;82.49;97859.38;108011;1276;59744;-68
2021/11/25 05:25:48;;;;;;;17.10;11.30;;;;;;;-6.81;82.67;97863.10;108011;1275;71373;-68
2021/11/25 05:28:17;;;;;;;24.80;14.00;;;;;;;-6.78;82.57;97862.44;107957;1275;68641;-68
2021/11/25 05:30:46;;;;;;;28.00;14.60;;;;;;;-6.74;82.83;97859.23;107974;1275;68652;-68
2021/11/25 05:33:16;;;;;;;24.60;17.00;;;;;;;-6.69;83.28;97859.92;108022;1272;59722;-68
2021/11/25 05:35:45;;;;;;;;;;;;;;;-6.66;83.58;97858.40;107971;1275;59729;-68
2021/11/25 05:38:15;;;;;;;19.70;11.50;;;;;;;-6.63;83.78;97859.26;108101;1272;69582;-68
2021/11/25 05:40:45;;;;;;;26.30;14.10;;;;;;;-6.61;84.06;97862.82;108158;1274;68132;-68
2021/11/25 05:43:14;;;;;;;22.40;12.50;;;;;;;-6.57;84.14;97865.38;108115;1275;68658;-68
2021/11/25 05:45:45;;;;;;;24.40;14.20;;;;;;;-6.53;84.33;97867.76;108070;1273;59783;-68
2021/11/25 05:48:15;;;;;;;20.30;13.30;;;;;;;-6.51;84.65;97865.56;108126;1273;59783;-68
2021/11/25 05:50:44;;;;;;;23.20;14.80;;;;;;;-6.49;84.64;97860.81;108126;1275;71794;-68
2021/11/25 05:53:18;;;;;;;21.50;14.20;;;;;;;-6.49;84.62;97859.13;108090;1273;68621;-69
2021/11/25 05:55:47;;;;;;;20.40;13.20;;;;;;;-6.48;84.37;97853.52;107968;1275;68717;-68
2021/11/25 05:58:17;;;;;;;31.30;19.50;;;;;;;-6.48;84.24;97857.58;108103;1272;59925;-68
2021/11/25 06:00:47;;;;;;;37.20;19.90;;;;;;;-6.49;84.19;97857.59;107868;1272;59768;-68
2021/11/25 06:03:17;;;;;;;21.00;11.60;;;;;;;-6.49;84.36;97855.89;108064;1272;71020;-69
2021/11/25 06:05:46;;;;;;;20.30;12.30;;;;;;;-6.44;84.25;97854.72;108114;1272;67607;-69
2021/11/25 06:08:15;;;;;;;26.80;15.80;;;;;;;-6.39;84.42;97851.00;108156;1272;68891;-68
2021/11/25 06:10:44;;;;;;;16.30;10.20;;;;;;;-6.34;84.49;97851.66;108136;1272;59763;-68
2021/11/25 06:13:13;;;;;;;18.80;12.50;;;;;;;-6.30;84.48;97849.81;108071;1272;59726;-69
2021/11/25 06:15:43;;;;;;;32.70;18.40;;;;;;;-6.26;84.53;97852.02;107784;1275;392310;-68
2021/11/25 06:18:13;;;;;;;29.20;15.50;;;;;;;-6.20;84.26;97850.51;107993;1275;67090;-69
2021/11/25 06:20:42;;;;;;;20.20;12.20;;;;;;;-6.14;84.11;97846.77;108079;1272;68427;-68
2021/11/25 06:23:12;;;;;;;34.00;17.10;;;;;;;-6.09;84.08;97848.14;108068;1272;59725;-68
2021/11/25 06:25:43;;;;;;;26.20;13.90;;;;;;;-6.04;84.26;97847.79;107931;1275;59745;-69
2021/11/25 06:28:13;;;;;;;49.80;26.80;;;;;;;-5.97;83.89;97843.54;108048;1273;71403;-68
2021/11/25 06:30:42;;;;;;;26.60;16.00;;;;;;;-5.90;83.84;97844.20;108053;1274;69079;-68
2021/11/25 06:33:11;;;;;;;41.60;24.20;;;;;;;-5.82;84.03;97841.98;107989;1275;69244;-69
2021/11/25 06:35:40;;;;;;;21.60;12.20;;;;;;;-5.74;84.13;97840.09;108065;1274;59693;-68
2021/11/25 06:38:09;;;;;;;33.80;20.60;;;;;;;-5.65;84.24;97841.77;108084;1272;59779;-68
2021/11/25 06:40:38;;;;;;;19.40;12.00;;;;;;;-5.53;84.20;97841.75;108020;1272;71084;-68
2021/11/25 06:43:08;;;;;;;22.10;15.70;;;;;;;-5.40;84.03;97838.16;108093;1272;68982;-68
2021/11/25 06:45:37;;;;;;;17.10;11.80;;;;;;;-5.26;84.00;97839.30;108024;1275;69363;-68
2021/11/25 06:48:07;;;;;;;19.50;13.50;;;;;;;-4.93;84.12;97831.67;107999;1273;59722;-68
2021/11/25 06:50:37;;;;;;;28.70;18.00;;;;;;;-4.09;84.35;97831.14;108109;1273;59698;-69
2021/11/25 06:53:07;;;;;;;38.40;22.50;;;;;;;-3.07;82.58;97825.02;108012;1273;71583;-69
2021/11/25 06:55:36;;;;;;;60.40;32.90;;;;;;;-2.14;78.99;97819.80;108060;1274;68011;-69
2021/11/25 06:58:05;;;;;;;36.70;22.90;;;;;;;-1.30;77.98;97813.39;108087;1275;68726;-69
2021/11/25 07:00:34;;;;;;;31.40;19.80;;;;;;;-0.45;77.48;97814.02;108096;1275;59725;-68
2021/11/25 07:03:05;;;;;;;83.10;48.90;;;;;;;0.43;76.11;97811.02;108134;1275;59782;-67
2021/11/25 07:05:37;;;;;;;82.20;51.20;;;;;;;1.28;75.13;97806.11;108087;1275;72213;-68
2021/11/25 07:08:07;;;;;;;84.80;52.70;;;;;;;2.08;73.78;97800.56;108053;1270;67903;-69
2021/11/25 07:10:36;;;;;;;96.20;59.30;;;;;;;2.82;71.63;97794.94;107975;1273;70093;-69
2021/11/25 07:13:05;;;;;;;82.80;53.80;;;;;;;3.53;68.65;97792.30;108006;1272;59710;-68
2021/11/25 07:15:34;;;;;;;80.30;49.80;;;;;;;4.22;68.56;97792.65;107788;1275;59713;-68
2021/11/25 07:18:03;;;;;;;79.70;50.60;;;;;;;4.85;66.02;97784.96;107882;1277;72112;-67
2021/11/25 07:20:32;;;;;;;79.60;48.20;;;;;;;5.31;62.33;97787.08;107901;1276;69297;-69
2021/11/25 07:23:01;;;;;;;79.20;52.10;;;;;;;5.73;62.21;97788.89;108009;1276;68649;-69
2021/11/25 07:25:30;;;;;;;79.70;50.80;;;;;;;6.23;60.93;97785.63;107967;1272;59716;-69
2021/11/25 07:27:59;;;;;;;77.20;51.30;;;;;;;6.72;58.71;97784.05;108025;1273;59751;-69
2021/11/25 07:30:29;;;;;;;69.00;48.50;;;;;;;7.08;54.51;97783.56;107932;1276;72249;-67
2021/11/25 07:32:58;;;;;;;70.90;48.40;;;;;;;7.51;55.07;97788.91;108030;1275;68595;-70
2021/11/25 07:35:27;;;;;;;66.90;46.80;;;;;;;7.96;55.45;97784.67;107958;1272;68629;-67
2021/11/25 07:37:57;;;;;;;69.10;46.30;;;;;;;8.43;55.12;97781.80;107938;1276;59720;-68
2021/11/25 07:40:27;;;;;;;65.10;47.40;;;;;;;8.88;53.79;97780.59;107922;1275;59777;-68
2021/11/25 07:42:56;;;;;;;65.60;44.00;;;;;;;9.25;49.78;97779.34;107923;1272;70891;-68
2021/11/25 07:45:31;;;;;;;57.60;42.80;;;;;;;9.62;46.69;97774.43;107996;1272;68698;-67
2021/11/25 07:48:01;;;;;;;52.60;40.50;;;;;;;10.13;45.58;97770.83;107933;1276;68857;-68
2021/11/25 07:50:31;;;;;;;57.50;45.00;;;;;;;10.55;43.86;97768.56;107906;1275;59679;-68
2021/11/25 07:53:00;;;;;;;53.90;41.40;;;;;;;10.90;43.89;97763.64;108105;1274;59789;-68
2021/11/25 07:55:29;;;;;;;57.10;40.80;;;;;;;11.18;43.94;97762.89;108077;1275;71616;-68
2021/11/25 07:57:59;;;;;;;63.40;46.30;;;;;;;11.43;42.11;97760.45;108177;1271;68568;-68
2021/11/25 08:00:29;;;;;;;61.40;43.90;;;;;;;11.45;40.72;97759.92;108082;1272;70056;-70
2021/11/25 08:02:58;;;;;;;54.40;40.80;;;;;;;11.56;41.01;97761.79;108097;1271;59842;-68
2021/11/25 08:05:28;;;;;;;51.40;39.90;;;;;;;11.96;41.12;97763.13;107902;1276;59718;-68
2021/11/25 08:07:58;;;;;;;52.60;39.40;;;;;;;12.25;40.58;97764.29;107982;1272;71588;-69
2021/11/25 08:10:28;;;;;;;52.80;41.60;;;;;;;12.57;38.98;97754.07;108190;1272;67861;-68
2021/11/25 08:12:59;;;;;;;59.90;44.60;;;;;;;12.92;38.50;97754.73;108034;1275;68443;-67
2021/11/25 08:15:28;;;;;;;51.10;39.70;;;;;;;13.09;37.31;97751.09;108072;1272;59766;-68
2021/11/25 08:17:58;;;;;;;50.60;39.20;;;;;;;13.10;37.15;97749.64;108146;1275;59661;-69
2021/11/25 08:20:28;;;;;;;45.20;35.50;;;;;;;13.18;36.67;97746.79;108000;1276;71570;-68
2021/11/25 08:22:57;;;;;;;39.70;32.10;;;;;;;13.22;36.59;97743.80;107889;1275;67995;-68
2021/11/25 08:25:26;;;;;;;34.90;29.40;;;;;;;13.57;35.57;97741.98;108129;1274;69698;-67
2021/11/25 08:27:57;;;;;;;33.50;25.90;;;;;;;14.07;36.94;97742.09;107916;1275;59790;-68
2021/11/25 08:30:28;;;;;;;34.30;27.70;;;;;;;14.53;35.34;97741.52;107901;1275;59703;-67
2021/11/25 08:32:58;;;;;;;40.60;27.70;;;;;;;14.60;35.03;97738.09;107985;1275;70786;-67
2021/11/25 08:35:28;;;;;;;33.50;26.40;;;;;;;14.46;34.26;97737.73;108012;1272;68635;-66
2021/11/25 08:38:02;;;;;;;29.80;22.90;;;;;;;14.51;34.86;97738.50;107892;1276;69336;-67
2021/11/25 08:40:31;;;;;;;24.70;20.20;;;;;;;14.90;33.48;97734.67;107908;1275;59738;-67
2021/11/25 08:43:00;;;;;;;27.90;22.40;;;;;;;15.24;33.86;97733.55;107996;1273;59745;-66
2021/11/25 08:45:30;;;;;;;27.40;22.00;;;;;;;15.70;33.30;97733.41;107971;1276;72150;-66
2021/11/25 08:48:02;;;;;;;26.40;20.50;;;;;;;16.04;33.20;97735.45;107982;1272;68423;-66
2021/11/25 08:50:31;;;;;;;22.80;17.80;;;;;;;16.10;31.90;97729.80;107999;1273;69427;-66
2021/11/25 08:53:00;;;;;;;22.70;17.30;;;;;;;16.39;32.88;97720.46;107876;1276;59757;-68
2021/11/25 08:55:34;;;;;;;25.10;20.70;;;;;;;16.66;31.50;97715.90;108002;1273;59728;-68
2021/11/25 08:58:05;;;;;;;20.60;16.80;;;;;;;16.62;31.62;97710.09;108029;1271;71048;-66
2021/11/25 09:00:34;;;;;;;19.30;15.10;;;;;;;17.10;32.22;97706.63;108061;1272;68660;-65
2021/11/25 09:03:04;;;;;;;18.50;15.10;;;;;;;17.90;30.79;97706.59;108015;1276;69476;-68
2021/11/25 09:05:34;;;;;;;18.50;15.40;;;;;;;18.66;29.68;97705.20;107911;1273;59772;-67
2021/11/25 09:08:03;;;;;;;19.00;14.80;;;;;;;19.29;28.86;97701.24;107973;1272;59779;-65
2021/11/25 09:10:41;;;;;;;17.70;13.70;;;;;;;19.84;26.50;97700.37;107992;1274;71658;-66
2021/11/25 09:13:10;;;;;;;16.60;12.80;;;;;;;20.20;26.80;97701.27;108025;1272;67655;-66
2021/11/25 09:15:40;;;;;;;;;;;;;;;20.65;26.81;97690.56;107970;1273;69446;-65
2021/11/25 09:18:10;;;;;;;17.10;13.70;;;;;;;21.05;26.63;97692.34;107963;1272;59748;-67
2021/11/25 09:20:40;;;;;;;19.70;15.60;;;;;;;21.36;26.43;97689.50;108024;1272;59636;-66
2021/11/25 09:23:16;;;;;;;19.40;16.10;;;;;;;21.48;25.87;97686.94;107947;1271;70726;-65
2021/11/25 09:25:46;;;;;;;17.90;15.60;;;;;;;21.27;26.67;97682.67;107999;1275;68634;-67
2021/11/25 09:28:19;;;;;;;21.60;17.70;;;;;;;21.31;26.81;97678.52;107799;1276;69501;-66
2021/11/25 09:30:50;;;;;;;14.90;12.60;;;;;;;21.13;25.15;97677.31;108036;1272;59745;-67
2021/11/25 09:33:20;;;;;;;14.00;11.10;;;;;;;21.26;26.26;97669.79;107981;1275;59749;-66
2021/11/25 09:35:50;;;;;;;15.80;11.90;;;;;;;21.74;24.63;97662.04;108032;1272;71625;-67
2021/11/25 09:38:20;;;;;;;15.10;12.10;;;;;;;22.02;24.54;97659.23;108084;1275;68730;-67
2021/11/25 09:40:50;;;;;;;18.30;13.80;;;;;;;22.17;24.62;97654.66;107902;1272;69847;-67
2021/11/25 09:43:25;;;;;;;14.10;11.20;;;;;;;22.31;23.15;97649.85;107934;1275;59776;-66
2021/11/25 09:45:55;;;;;;;13.10;10.00;;;;;;;22.46;23.39;97647.79;108020;1272;59793;-65
2021/11/25 09:48:27;;;;;;;15.90;11.90;;;;;;;22.50;23.64;97642.58;108081;1272;69966;-69
2021/11/25 09:50:57;;;;;;;14.30;10.90;;;;;;;22.48;23.12;97642.18;107970;1275;68162;-69
2021/11/25 09:53:28;;;;;;;14.30;11.00;;;;;;;22.49;23.32;97639.49;107975;1272;69180;-67
2021/11/25 09:55:57;;;;;;;15.40;11.70;;;;;;;22.51;22.51;97638.38;108061;1272;59741;-68
2021/11/25 09:58:30;;;;;;;17.50;13.40;;;;;;;22.49;22.01;97636.20;108070;1273;59789;-68
2021/11/25 10:01:11;;;;;;;19.50;14.70;;;;;;;22.28;22.73;97629.36;108139;1272;69843;-67
2021/11/25 10:03:59;;;;;;;13.60;11.50;;;;;;;21.98;22.68;97616.71;108099;1273;69275;-66
2021/11/25 10:06:34;;;;;;;15.70;11.80;;;;;;;21.99;22.28;97614.64;108059;1273;68745;-67
2021/11/25 10:09:04;;;;;;;17.40;13.70;;;;;;;21.78;22.71;97610.17;107962;1275;59747;-66
2021/11/25 10:11:37;;;;;;;15.30;12.30;;;;;;;21.23;22.38;97609.91;108037;1275;59703;-66
2021/11/25 10:14:13;;;;;;;16.70;12.30;;;;;;;21.30;24.12;97608.06;107998;1272;71626;-66
2021/11/25 10:16:45;;;;;;;20.70;14.30;;;;;;;21.46;23.58;97606.13;108097;1273;68286;-69
2021/11/25 10:19:22;;;;;;;18.30;14.10;;;;;;;21.46;22.96;97600.11;107894;1276;68435;-66
2021/11/25 10:21:57;;;;;;;12.50;9.60;;;;;;;21.71;23.26;97591.34;107995;1275;59783;-65
2021/11/25 10:24:38;;;;;;;16.10;13.40;;;;;;;21.67;22.17;97588.36;108025;1275;59713;-67
2021/11/25 10:27:17;;;;;;;17.80;12.30;;;;;;;20.88;22.43;97582.46;107996;1272;72049;-65
2021/11/25 10:30:09;;;;;;;14.30;11.20;;;;;;;20.95;23.13;97578.68;107985;1272;68186;-66
2021/11/25 10:32:39;;;;;;;18.00;13.70;;;;;;;21.03;22.99;97575.28;107992;1272;69583;-67
2021/11/25 10:35:23;;;;;;;16.90;13.70;;;;;;;20.44;22.88;97571.27;108000;1272;60054;-67
2021/11/25 10:38:44;;;;;;;13.80;10.50;;;;;;;19.96;23.42;97567.88;107987;1274;59756;-65
2021/11/25 10:40:41;;;;;;;17.40;13.50;;;;;;;19.64;23.83;97566.36;107893;1276;72252;-65
2021/11/25 10:43:22;;;;;;;16.40;13.50;;;;;;;18.92;24.21;97566.16;107933;1271;67975;-66
2021/11/25 10:45:54;;;;;;;18.30;14.40;;;;;;;18.35;25.09;97563.41;107799;1276;69297;-65
2021/11/25 10:48:39;;;;;;;17.90;13.80;;;;;;;18.15;25.31;97558.98;107884;1273;59732;-66
2021/11/25 10:51:29;;;;;;;17.60;13.50;;;;;;;17.59;26.00;97558.70;108015;1271;59720;-66
2021/11/25 10:54:08;;;;;;;17.10;12.50;;;;;;;17.18;26.91;97558.17;107994;1272;71803;-66
2021/11/25 10:56:40;;;;;;;16.70;13.60;;;;;;;16.99;27.22;97551.89;107945;1275;68241;-66
2021/11/25 10:59:13;;;;;;;17.60;13.40;;;;;;;16.87;27.36;97551.71;108036;1274;69477;-66
2021/11/25 11:01:48;;;;;;;17.50;14.10;;;;;;;17.04;27.20;97548.98;107778;1276;59776;-67
2021/11/25 11:04:22;;;;;;;16.10;12.80;;;;;;;16.94;27.12;97542.23;107989;1275;59754;-67
2021/11/25 11:06:56;;;;;;;15.60;12.70;;;;;;;16.95;27.46;97534.17;107934;1275;70638;-68
2021/11/25 11:09:28;;;;;;;17.50;13.70;;;;;;;16.94;27.29;97530.44;108058;1272;68374;-67
2021/11/25 11:12:15;;;;;;;17.90;13.30;;;;;;;16.52;27.59;97523.71;108021;1272;68680;-67
2021/11/25 11:14:51;;;;;;;16.20;13.20;;;;;;;16.46;28.32;97524.39;107984;1271;59783;-66
2021/11/25 11:17:24;;;;;;;18.00;14.10;;;;;;;16.87;27.58;97522.45;107949;1272;59746;-66
2021/11/25 11:20:05;;;;;;;17.60;13.70;;;;;;;17.30;27.63;97520.34;107974;1276;70775;-68
2021/11/25 11:22:35;;;;;;;17.40;13.10;;;;;;;17.80;27.40;97515.98;107979;1275;69264;-69
2021/11/25 11:25:07;;;;;;;18.00;13.00;;;;;;;18.24;26.36;97516.17;108021;1271;68449;-69
2021/11/25 11:27:36;;;;;;;17.20;12.90;;;;;;;18.27;26.20;97518.73;107950;1275;59771;-66
2021/11/25 11:30:05;;;;;;;18.10;13.00;;;;;;;18.33;25.50;97519.86;107902;1273;59774;-68
2021/11/25 11:32:34;;;;;;;17.50;12.90;;;;;;;17.72;26.04;97511.11;107819;1275;71525;-66
2021/11/25 11:35:05;;;;;;;17.70;12.50;;;;;;;17.40;26.87;97510.75;108008;1272;68481;-66